DLH75N KSFO-EDDF
Flight info
| Callsign | DLH75N |
|---|---|
| Flight time | N/A |
| Altitude | 35000 |
| Route | SNTNA2 ORRCA Q120 GALLI DCT PARZZ Q121 PIH DCT DIK DCT 50N096W 55N086W DCT KEMSA DCT KLIPS DCT AVUTI/M082F350 DCT 58N050W 58N040W 58N030W 57N020W DCT PIKIL/N0469F350 DCT SOVED DCT LUTOV DCT REMSI DCT BELOX L603 DOLAS DCT NAVPI DCT NOLRU DCT DIXAT DIXAT1A |
| Aircraft | A343/H-SDE2E3FGHIJ4J5M1RWXY/LB1D1 |
Departure
| Time | N/A |
|---|---|
| Airport | San Francisco International Airport (KSFO) |
Arrival
| Time | 2026-04-19 06:26 |
|---|---|
| Airport | Frankfurt Main Airport (EDDF) |
| Time | Latitude | Longitude | Altitude | Speed | Heading |
|---|---|---|---|---|---|
| 2026-04-19 05:56 | 51.44526 | 6.44189 | 31145 ft | 502 kts | 114° |
| 2026-04-19 05:57 | 51.43242 | 6.49385 | 30773 ft | 501 kts | 114° |
| 2026-04-19 05:57 | 51.41958 | 6.54571 | 30411 ft | 501 kts | 114° |
| 2026-04-19 05:57 | 51.40672 | 6.59757 | 30222 ft | 500 kts | 114° |
| 2026-04-19 05:58 | 51.39256 | 6.65457 | 30198 ft | 494 kts | 114° |
| 2026-04-19 05:58 | 51.37198 | 6.73712 | 30168 ft | 492 kts | 114° |
| 2026-04-19 05:59 | 51.34669 | 6.83818 | 30190 ft | 487 kts | 114° |
| 2026-04-19 05:59 | 51.32145 | 6.93852 | 30184 ft | 486 kts | 115° |
| 2026-04-19 06:00 | 51.29610 | 7.03887 | 30182 ft | 486 kts | 115° |
| 2026-04-19 06:00 | 51.26258 | 7.13139 | 30034 ft | 482 kts | 134° |
| 2026-04-19 06:00 | 51.23849 | 7.16814 | 29704 ft | 476 kts | 146° |
| 2026-04-19 06:01 | 51.21121 | 7.19595 | 29535 ft | 457 kts | 155° |
| 2026-04-19 06:01 | 51.18332 | 7.21872 | 28908 ft | 450 kts | 157° |
| 2026-04-19 06:01 | 51.15553 | 7.24038 | 28288 ft | 445 kts | 157° |
| 2026-04-19 06:01 | 51.12790 | 7.26193 | 27724 ft | 439 kts | 157° |
| 2026-04-19 06:02 | 51.10066 | 7.28344 | 27132 ft | 435 kts | 156° |
| 2026-04-19 06:02 | 51.07392 | 7.30540 | 26570 ft | 431 kts | 156° |
| 2026-04-19 06:02 | 51.04744 | 7.32729 | 26006 ft | 427 kts | 156° |
| 2026-04-19 06:02 | 51.02120 | 7.34901 | 25445 ft | 424 kts | 156° |
| 2026-04-19 06:03 | 50.99518 | 7.37048 | 24888 ft | 420 kts | 156° |
| 2026-04-19 06:03 | 50.96934 | 7.39175 | 24320 ft | 417 kts | 156° |
| 2026-04-19 06:03 | 50.94364 | 7.41287 | 23755 ft | 414 kts | 156° |
| 2026-04-19 06:03 | 50.91811 | 7.43382 | 23127 ft | 411 kts | 156° |
| 2026-04-19 06:04 | 50.89284 | 7.45453 | 22541 ft | 407 kts | 156° |
| 2026-04-19 06:04 | 50.86829 | 7.47464 | 22011 ft | 403 kts | 156° |
| 2026-04-19 06:04 | 50.84347 | 7.49498 | 21446 ft | 400 kts | 157° |
| 2026-04-19 06:04 | 50.81883 | 7.51507 | 20884 ft | 397 kts | 157° |
| 2026-04-19 06:05 | 50.79441 | 7.53490 | 20317 ft | 392 kts | 157° |
| 2026-04-19 06:05 | 50.77026 | 7.55441 | 19784 ft | 388 kts | 157° |
| 2026-04-19 06:05 | 50.74638 | 7.57374 | 19218 ft | 384 kts | 157° |
| 2026-04-19 06:05 | 50.72273 | 7.59290 | 18695 ft | 381 kts | 157° |
| 2026-04-19 06:06 | 50.69929 | 7.61205 | 18115 ft | 378 kts | 157° |
| 2026-04-19 06:06 | 50.67610 | 7.63099 | 17653 ft | 374 kts | 157° |
| 2026-04-19 06:06 | 50.65292 | 7.64980 | 17203 ft | 376 kts | 158° |
| 2026-04-19 06:06 | 50.62962 | 7.66864 | 16724 ft | 376 kts | 158° |
| 2026-04-19 06:07 | 50.60641 | 7.68743 | 16277 ft | 376 kts | 158° |
| 2026-04-19 06:07 | 50.58305 | 7.70633 | 15836 ft | 378 kts | 158° |
| 2026-04-19 06:07 | 50.55965 | 7.72513 | 15410 ft | 377 kts | 158° |
| 2026-04-19 06:07 | 50.53628 | 7.74391 | 14984 ft | 377 kts | 158° |
| 2026-04-19 06:08 | 50.51299 | 7.76263 | 14562 ft | 376 kts | 158° |
| 2026-04-19 06:08 | 50.48978 | 7.78128 | 14141 ft | 375 kts | 158° |
| 2026-04-19 06:08 | 50.46658 | 7.79990 | 13665 ft | 374 kts | 158° |
| 2026-04-19 06:08 | 50.44351 | 7.81862 | 13233 ft | 374 kts | 156° |
| 2026-04-19 06:09 | 50.42180 | 7.84140 | 12859 ft | 377 kts | 148° |
| 2026-04-19 06:09 | 50.40112 | 7.86677 | 12499 ft | 377 kts | 146° |
| 2026-04-19 06:09 | 50.38068 | 7.89232 | 12140 ft | 375 kts | 146° |
| 2026-04-19 06:09 | 50.36035 | 7.91770 | 11796 ft | 373 kts | 146° |
| 2026-04-19 06:10 | 50.34009 | 7.94280 | 11517 ft | 368 kts | 147° |
| 2026-04-19 06:10 | 50.32053 | 7.96674 | 11313 ft | 344 kts | 147° |
| 2026-04-19 06:10 | 50.30257 | 7.98905 | 11022 ft | 315 kts | 147° |
| 2026-04-19 06:10 | 50.28594 | 8.00963 | 10689 ft | 294 kts | 148° |
| 2026-04-19 06:11 | 50.26995 | 8.02973 | 10482 ft | 301 kts | 145° |
| 2026-04-19 06:11 | 50.25543 | 8.05345 | 10252 ft | 303 kts | 134° |
| 2026-04-19 06:11 | 50.24241 | 8.07932 | 9989 ft | 305 kts | 132° |
| 2026-04-19 06:12 | 50.21678 | 8.13203 | 9744 ft | 303 kts | 132° |
| 2026-04-19 06:12 | 50.20391 | 8.15831 | 9700 ft | 305 kts | 132° |
| 2026-04-19 06:12 | 50.19100 | 8.18458 | 9629 ft | 304 kts | 132° |
| 2026-04-19 06:12 | 50.18248 | 8.20189 | 9504 ft | 303 kts | 132° |
| 2026-04-19 06:13 | 50.16956 | 8.22805 | 9392 ft | 305 kts | 132° |
| 2026-04-19 06:13 | 50.15658 | 8.25430 | 9034 ft | 307 kts | 132° |
| 2026-04-19 06:13 | 50.14351 | 8.28066 | 8632 ft | 308 kts | 131° |
| 2026-04-19 06:13 | 50.13040 | 8.30706 | 8253 ft | 308 kts | 131° |
| 2026-04-19 06:14 | 50.11731 | 8.33343 | 7867 ft | 307 kts | 130° |
| 2026-04-19 06:14 | 50.10608 | 8.36111 | 7468 ft | 299 kts | 114° |
| 2026-04-19 06:14 | 50.10275 | 8.39278 | 7123 ft | 299 kts | 83° |
| 2026-04-19 06:14 | 50.10782 | 8.42382 | 6866 ft | 294 kts | 68° |
| 2026-04-19 06:15 | 50.11501 | 8.45365 | 6614 ft | 295 kts | 66° |
| 2026-04-19 06:15 | 50.12235 | 8.48350 | 6393 ft | 294 kts | 65° |
| 2026-04-19 06:15 | 50.12957 | 8.51329 | 6126 ft | 294 kts | 65° |
| 2026-04-19 06:15 | 50.13677 | 8.54293 | 5860 ft | 291 kts | 65° |
| 2026-04-19 06:16 | 50.14386 | 8.57231 | 5610 ft | 288 kts | 65° |
| 2026-04-19 06:16 | 50.15087 | 8.60152 | 5354 ft | 287 kts | 65° |
| 2026-04-19 06:16 | 50.15776 | 8.63045 | 5109 ft | 284 kts | 65° |
| 2026-04-19 06:16 | 50.16448 | 8.65924 | 4854 ft | 282 kts | 65° |
| 2026-04-19 06:17 | 50.17131 | 8.68782 | 4597 ft | 280 kts | 64° |
| 2026-04-19 06:17 | 50.17813 | 8.71608 | 4346 ft | 277 kts | 64° |
| 2026-04-19 06:17 | 50.18478 | 8.74409 | 4077 ft | 273 kts | 63° |
| 2026-04-19 06:17 | 50.19123 | 8.77137 | 3985 ft | 262 kts | 64° |
| 2026-04-19 06:18 | 50.19733 | 8.79718 | 3981 ft | 247 kts | 64° |
| 2026-04-19 06:18 | 50.20304 | 8.82167 | 3977 ft | 234 kts | 63° |
| 2026-04-19 06:18 | 50.20857 | 8.84546 | 3981 ft | 234 kts | 65° |
| 2026-04-19 06:18 | 50.21159 | 8.87069 | 3984 ft | 240 kts | 82° |
| 2026-04-19 06:19 | 50.20918 | 8.89662 | 3980 ft | 247 kts | 110° |
| 2026-04-19 06:19 | 50.19835 | 8.91715 | 3981 ft | 248 kts | 150° |
| 2026-04-19 06:19 | 50.18218 | 8.92529 | 3995 ft | 245 kts | 175° |
| 2026-04-19 06:19 | 50.16520 | 8.92888 | 3990 ft | 247 kts | 176° |
| 2026-04-19 06:20 | 50.14822 | 8.93243 | 3989 ft | 246 kts | 176° |
| 2026-04-19 06:20 | 50.13189 | 8.92903 | 3986 ft | 232 kts | 214° |
| 2026-04-19 06:20 | 50.12007 | 8.91348 | 3990 ft | 219 kts | 239° |
| 2026-04-19 06:20 | 50.11282 | 8.89314 | 3994 ft | 213 kts | 255° |
| 2026-04-19 06:21 | 50.10787 | 8.87155 | 3984 ft | 207 kts | 257° |
| 2026-04-19 06:21 | 50.10311 | 8.85110 | 3966 ft | 195 kts | 257° |
| 2026-04-19 06:21 | 50.09845 | 8.83168 | 3824 ft | 187 kts | 256° |
| 2026-04-19 06:21 | 50.09397 | 8.81299 | 3555 ft | 182 kts | 258° |
| 2026-04-19 06:22 | 50.08960 | 8.79460 | 3259 ft | 179 kts | 259° |
| 2026-04-19 06:22 | 50.08532 | 8.77662 | 2981 ft | 175 kts | 257° |
| 2026-04-19 06:22 | 50.08118 | 8.75927 | 2795 ft | 166 kts | 257° |
| 2026-04-19 06:22 | 50.07715 | 8.74248 | 2554 ft | 163 kts | 257° |
| 2026-04-19 06:23 | 50.07327 | 8.72612 | 2297 ft | 160 kts | 258° |
| 2026-04-19 06:23 | 50.06960 | 8.71067 | 2095 ft | 150 kts | 259° |
| 2026-04-19 06:23 | 50.06608 | 8.69597 | 1878 ft | 141 kts | 261° |
| 2026-04-19 06:23 | 50.06271 | 8.68171 | 1716 ft | 140 kts | 258° |
| 2026-04-19 06:24 | 50.05934 | 8.66742 | 1495 ft | 141 kts | 257° |
| 2026-04-19 06:24 | 50.05595 | 8.65315 | 1312 ft | 140 kts | 256° |
| 2026-04-19 06:24 | 50.05255 | 8.63897 | 1108 ft | 140 kts | 256° |
| 2026-04-19 06:24 | 50.04917 | 8.62482 | 925 ft | 139 kts | 255° |
| 2026-04-19 06:25 | 50.04582 | 8.61070 | 733 ft | 140 kts | 253° |
| 2026-04-19 06:25 | 50.04241 | 8.59642 | 560 ft | 140 kts | 251° |
| 2026-04-19 06:25 | 50.03899 | 8.58232 | 387 ft | 137 kts | 252° |
| 2026-04-19 06:25 | 50.03608 | 8.56987 | 360 ft | 99 kts | 250° |
| 2026-04-19 06:26 | 50.03426 | 8.56223 | 360 ft | 58 kts | 249° |
| 2026-04-19 06:26 | 50.03327 | 8.55796 | 354 ft | 32 kts | 253° |
| 2026-04-19 06:26 | 50.03317 | 8.55475 | 355 ft | 23 kts | 278° |
| 2026-04-19 06:26 | 50.03335 | 8.55308 | 354 ft | 0 kts | 280° |
| 2026-04-19 06:27 | 50.03338 | 8.55286 | 347 ft | 6 kts | 279° |
| 2026-04-19 06:27 | 50.03361 | 8.55186 | 357 ft | 11 kts | 312° |
| 2026-04-19 06:27 | 50.03420 | 8.55197 | 358 ft | 9 kts | 45° |
| 2026-04-19 06:28 | 50.03447 | 8.55282 | 357 ft | 9 kts | 68° |
| 2026-04-19 06:28 | 50.03471 | 8.55383 | 354 ft | 11 kts | 71° |
| 2026-04-19 06:28 | 50.03496 | 8.55496 | 356 ft | 12 kts | 70° |
| 2026-04-19 06:28 | 50.03527 | 8.55622 | 358 ft | 13 kts | 70° |
| 2026-04-19 06:29 | 50.03560 | 8.55758 | 356 ft | 14 kts | 69° |
| 2026-04-19 06:29 | 50.03593 | 8.55894 | 363 ft | 14 kts | 69° |
| 2026-04-19 06:29 | 50.03627 | 8.56034 | 358 ft | 14 kts | 70° |
| 2026-04-19 06:29 | 50.03660 | 8.56174 | 359 ft | 14 kts | 70° |
| 2026-04-19 06:30 | 50.03696 | 8.56327 | 361 ft | 16 kts | 69° |
| 2026-04-19 06:30 | 50.03736 | 8.56494 | 366 ft | 17 kts | 69° |
| 2026-04-19 06:30 | 50.03776 | 8.56634 | 361 ft | 12 kts | 53° |
| 2026-04-19 06:30 | 50.03848 | 8.56670 | 363 ft | 11 kts | 10° |
| 2026-04-19 06:31 | 50.03899 | 8.56684 | 365 ft | 3 kts | 11° |
| 2026-04-19 06:31 | 50.03911 | 8.56688 | 365 ft | 3 kts | 11° |
| 2026-04-19 06:31 | 50.03961 | 8.56703 | 365 ft | 12 kts | 11° |
| 2026-04-19 06:31 | 50.04065 | 8.56737 | 368 ft | 18 kts | 12° |
| 2026-04-19 06:32 | 50.04188 | 8.56777 | 367 ft | 18 kts | 11° |
| 2026-04-19 06:32 | 50.04305 | 8.56815 | 368 ft | 16 kts | 12° |
| 2026-04-19 06:32 | 50.04395 | 8.56843 | 370 ft | 13 kts | 9° |
| 2026-04-19 06:32 | 50.04437 | 8.56778 | 370 ft | 10 kts | 263° |
| 2026-04-19 06:33 | 50.04407 | 8.56643 | 368 ft | 17 kts | 249° |
| 2026-04-19 06:33 | 50.04364 | 8.56461 | 366 ft | 19 kts | 250° |
| 2026-04-19 06:33 | 50.04320 | 8.56276 | 365 ft | 14 kts | 249° |
| 2026-04-19 06:33 | 50.04282 | 8.56121 | 366 ft | 16 kts | 249° |
| 2026-04-19 06:34 | 50.04275 | 8.55975 | 365 ft | 12 kts | 311° |
| 2026-04-19 06:34 | 50.04351 | 8.55924 | 366 ft | 13 kts | 340° |
| 2026-04-19 06:34 | 50.04457 | 8.55924 | 365 ft | 17 kts | 14° |
| 2026-04-19 06:34 | 50.04547 | 8.55976 | 368 ft | 12 kts | 33° |
| 2026-04-19 06:35 | 50.04587 | 8.56099 | 366 ft | 13 kts | 70° |
| 2026-04-19 06:35 | 50.04621 | 8.56193 | 366 ft | 9 kts | 26° |
| 2026-04-19 06:35 | 50.04674 | 8.56175 | 368 ft | 1 kts | 340° |
| 2026-04-19 06:35 | 50.04684 | 8.56169 | 366 ft | 2 kts | 340° |
| 2026-04-19 06:36 | 50.04696 | 8.56162 | 365 ft | 1 kts | 340° |
| 2026-04-19 06:36 | 50.04699 | 8.56160 | 365 ft | 0 kts | 340° |